sensor_id;sensor_type;location;lat;lon;timestamp;P1;durP1;ratioP1;P2;durP2;ratioP2
37641;SDS011;23486;51.956;5.888;2023-03-04T00:01:42;10.77;;;0.98;;
37641;SDS011;23486;51.956;5.888;2023-03-04T00:04:08;13.23;;;0.90;;
37641;SDS011;23486;51.956;5.888;2023-03-04T00:06:33;14.52;;;1.13;;
37641;SDS011;23486;51.956;5.888;2023-03-04T00:08:59;16.02;;;1.63;;
37641;SDS011;23486;51.956;5.888;2023-03-04T00:11:25;10.18;;;1.58;;
37641;SDS011;23486;51.956;5.888;2023-03-04T00:13:50;12.73;;;0.73;;
37641;SDS011;23486;51.956;5.888;2023-03-04T00:16:19;13.55;;;1.10;;
37641;SDS011;23486;51.956;5.888;2023-03-04T00:18:44;11.43;;;0.93;;
37641;SDS011;23486;51.956;5.888;2023-03-04T00:21:10;18.80;;;1.35;;
37641;SDS011;23486;51.956;5.888;2023-03-04T00:23:35;12.05;;;1.08;;
37641;SDS011;23486;51.956;5.888;2023-03-04T00:26:01;16.25;;;1.35;;
37641;SDS011;23486;51.956;5.888;2023-03-04T00:28:29;20.63;;;1.60;;
37641;SDS011;23486;51.956;5.888;2023-03-04T00:30:55;16.92;;;1.20;;
37641;SDS011;23486;51.956;5.888;2023-03-04T00:33:20;12.38;;;0.90;;
37641;SDS011;23486;51.956;5.888;2023-03-04T00:35:46;11.05;;;0.70;;
37641;SDS011;23486;51.956;5.888;2023-03-04T00:38:12;8.43;;;0.55;;
37641;SDS011;23486;51.956;5.888;2023-03-04T00:40:37;19.77;;;0.90;;
37641;SDS011;23486;51.956;5.888;2023-03-04T00:43:03;17.70;;;1.08;;
37641;SDS011;23486;51.956;5.888;2023-03-04T00:45:28;14.38;;;0.88;;
37641;SDS011;23486;51.956;5.888;2023-03-04T00:47:54;14.80;;;1.35;;
37641;SDS011;23486;51.956;5.888;2023-03-04T00:50:20;14.02;;;1.25;;
37641;SDS011;23486;51.956;5.888;2023-03-04T00:52:45;16.90;;;2.03;;
37641;SDS011;23486;51.956;5.888;2023-03-04T00:55:11;16.98;;;1.33;;
37641;SDS011;23486;51.956;5.888;2023-03-04T00:57:36;10.13;;;1.23;;
37641;SDS011;23486;51.956;5.888;2023-03-04T01:00:02;16.52;;;1.00;;
37641;SDS011;23486;51.956;5.888;2023-03-04T01:02:28;19.35;;;2.88;;
37641;SDS011;23486;51.956;5.888;2023-03-04T01:04:54;19.92;;;2.13;;
37641;SDS011;23486;51.956;5.888;2023-03-04T01:07:20;16.77;;;1.15;;
37641;SDS011;23486;51.956;5.888;2023-03-04T01:09:45;8.90;;;0.70;;
37641;SDS011;23486;51.956;5.888;2023-03-04T01:12:11;19.85;;;0.98;;
37641;SDS011;23486;51.956;5.888;2023-03-04T01:14:36;12.50;;;1.42;;
37641;SDS011;23486;51.956;5.888;2023-03-04T01:17:02;6.65;;;0.60;;
37641;SDS011;23486;51.956;5.888;2023-03-04T01:19:28;18.20;;;1.00;;
37641;SDS011;23486;51.956;5.888;2023-03-04T01:21:53;13.95;;;0.77;;
37641;SDS011;23486;51.956;5.888;2023-03-04T01:24:19;17.33;;;0.95;;
37641;SDS011;23486;51.956;5.888;2023-03-04T01:26:44;8.98;;;1.05;;
37641;SDS011;23486;51.956;5.888;2023-03-04T01:29:10;7.45;;;0.40;;
37641;SDS011;23486;51.956;5.888;2023-03-04T01:31:35;12.48;;;0.77;;
37641;SDS011;23486;51.956;5.888;2023-03-04T01:34:01;10.75;;;0.70;;
37641;SDS011;23486;51.956;5.888;2023-03-04T01:36:27;16.17;;;0.80;;
37641;SDS011;23486;51.956;5.888;2023-03-04T01:38:52;15.85;;;1.75;;
37641;SDS011;23486;51.956;5.888;2023-03-04T01:41:20;11.15;;;1.08;;
37641;SDS011;23486;51.956;5.888;2023-03-04T01:43:48;23.48;;;2.47;;
37641;SDS011;23486;51.956;5.888;2023-03-04T01:46:14;11.15;;;1.13;;
37641;SDS011;23486;51.956;5.888;2023-03-04T01:48:41;16.17;;;1.02;;
37641;SDS011;23486;51.956;5.888;2023-03-04T01:51:12;11.88;;;0.82;;
37641;SDS011;23486;51.956;5.888;2023-03-04T01:53:40;16.48;;;1.15;;
37641;SDS011;23486;51.956;5.888;2023-03-04T01:56:49;13.63;;;0.95;;
37641;SDS011;23486;51.956;5.888;2023-03-04T02:01:38;13.38;;;1.00;;
37641;SDS011;23486;51.956;5.888;2023-03-04T02:04:07;14.38;;;1.00;;
37641;SDS011;23486;51.956;5.888;2023-03-04T02:06:33;11.93;;;0.98;;
37641;SDS011;23486;51.956;5.888;2023-03-04T02:09:00;13.55;;;1.85;;
37641;SDS011;23486;51.956;5.888;2023-03-04T02:11:26;20.00;;;1.67;;
37641;SDS011;23486;51.956;5.888;2023-03-04T02:13:51;13.73;;;1.50;;
37641;SDS011;23486;51.956;5.888;2023-03-04T02:16:17;9.60;;;0.77;;
37641;SDS011;23486;51.956;5.888;2023-03-04T02:18:43;14.82;;;0.90;;
37641;SDS011;23486;51.956;5.888;2023-03-04T02:26:27;11.52;;;0.50;;
37641;SDS011;23486;51.956;5.888;2023-03-04T02:28:55;12.20;;;1.02;;
37641;SDS011;23486;51.956;5.888;2023-03-04T02:31:35;17.70;;;1.00;;
37641;SDS011;23486;51.956;5.888;2023-03-04T02:34:05;15.80;;;0.80;;
37641;SDS011;23486;51.956;5.888;2023-03-04T02:36:35;13.00;;;0.80;;
37641;SDS011;23486;51.956;5.888;2023-03-04T02:39:45;16.98;;;0.88;;
37641;SDS011;23486;51.956;5.888;2023-03-04T02:42:07;10.93;;;0.80;;
37641;SDS011;23486;51.956;5.888;2023-03-04T02:44:35;16.25;;;1.23;;
37641;SDS011;23486;51.956;5.888;2023-03-04T02:47:03;8.10;;;0.77;;
37641;SDS011;23486;51.956;5.888;2023-03-04T02:49:30;12.00;;;1.20;;
37641;SDS011;23486;51.956;5.888;2023-03-04T02:52:12;15.65;;;1.20;;
37641;SDS011;23486;51.956;5.888;2023-03-04T02:54:48;9.82;;;1.02;;
37641;SDS011;23486;51.956;5.888;2023-03-04T02:57:14;11.77;;;0.65;;
37641;SDS011;23486;51.956;5.888;2023-03-04T02:59:40;10.23;;;0.57;;
37641;SDS011;23486;51.956;5.888;2023-03-04T03:02:07;8.82;;;0.57;;
37641;SDS011;23486;51.956;5.888;2023-03-04T03:04:33;12.48;;;0.57;;
37641;SDS011;23486;51.956;5.888;2023-03-04T03:07:00;10.75;;;0.68;;
37641;SDS011;23486;51.956;5.888;2023-03-04T03:09:26;13.00;;;0.50;;
37641;SDS011;23486;51.956;5.888;2023-03-04T03:11:52;7.70;;;0.50;;
37641;SDS011;23486;51.956;5.888;2023-03-04T03:14:17;14.05;;;0.75;;
37641;SDS011;23486;51.956;5.888;2023-03-04T03:16:43;16.20;;;1.08;;
37641;SDS011;23486;51.956;5.888;2023-03-04T03:19:08;10.30;;;0.40;;
37641;SDS011;23486;51.956;5.888;2023-03-04T03:21:34;14.80;;;0.73;;
37641;SDS011;23486;51.956;5.888;2023-03-04T03:23:59;13.10;;;0.75;;
37641;SDS011;23486;51.956;5.888;2023-03-04T03:26:25;12.35;;;0.50;;
37641;SDS011;23486;51.956;5.888;2023-03-04T03:28:51;12.57;;;0.60;;
37641;SDS011;23486;51.956;5.888;2023-03-04T03:31:16;6.85;;;0.70;;
37641;SDS011;23486;51.956;5.888;2023-03-04T03:33:42;6.10;;;0.50;;
37641;SDS011;23486;51.956;5.888;2023-03-04T03:36:08;14.13;;;0.90;;
37641;SDS011;23486;51.956;5.888;2023-03-04T03:38:34;11.35;;;0.60;;
37641;SDS011;23486;51.956;5.888;2023-03-04T03:40:59;11.65;;;0.50;;
37641;SDS011;23486;51.956;5.888;2023-03-04T03:43:25;11.80;;;1.05;;
37641;SDS011;23486;51.956;5.888;2023-03-04T03:45:51;11.20;;;1.02;;
37641;SDS011;23486;51.956;5.888;2023-03-04T03:48:16;11.07;;;0.40;;
37641;SDS011;23486;51.956;5.888;2023-03-04T03:50:42;11.27;;;1.63;;
37641;SDS011;23486;51.956;5.888;2023-03-04T03:53:09;7.20;;;0.50;;
37641;SDS011;23486;51.956;5.888;2023-03-04T03:55:35;12.10;;;0.77;;
37641;SDS011;23486;51.956;5.888;2023-03-04T03:58:00;16.83;;;0.50;;
37641;SDS011;23486;51.956;5.888;2023-03-04T04:00:26;11.07;;;0.50;;
37641;SDS011;23486;51.956;5.888;2023-03-04T04:02:52;11.77;;;0.50;;
37641;SDS011;23486;51.956;5.888;2023-03-04T04:05:19;10.07;;;1.13;;
37641;SDS011;23486;51.956;5.888;2023-03-04T04:07:45;10.15;;;0.45;;
37641;SDS011;23486;51.956;5.888;2023-03-04T04:10:11;9.73;;;1.17;;
37641;SDS011;23486;51.956;5.888;2023-03-04T04:12:36;11.65;;;0.60;;
37641;SDS011;23486;51.956;5.888;2023-03-04T04:15:02;9.27;;;0.52;;
37641;SDS011;23486;51.956;5.888;2023-03-04T04:17:28;9.20;;;0.57;;
37641;SDS011;23486;51.956;5.888;2023-03-04T04:19:53;16.67;;;0.50;;
37641;SDS011;23486;51.956;5.888;2023-03-04T04:22:19;14.00;;;0.90;;
37641;SDS011;23486;51.956;5.888;2023-03-04T04:24:45;12.68;;;0.40;;
37641;SDS011;23486;51.956;5.888;2023-03-04T04:27:11;9.25;;;0.70;;
37641;SDS011;23486;51.956;5.888;2023-03-04T04:29:40;6.60;;;0.50;;
37641;SDS011;23486;51.956;5.888;2023-03-04T04:32:06;5.18;;;0.45;;
37641;SDS011;23486;51.956;5.888;2023-03-04T04:34:32;4.20;;;0.30;;
37641;SDS011;23486;51.956;5.888;2023-03-04T04:36:58;10.40;;;0.63;;
37641;SDS011;23486;51.956;5.888;2023-03-04T04:39:23;11.13;;;0.50;;
37641;SDS011;23486;51.956;5.888;2023-03-04T04:41:49;7.63;;;0.40;;
37641;SDS011;23486;51.956;5.888;2023-03-04T04:44:15;16.75;;;0.60;;
37641;SDS011;23486;51.956;5.888;2023-03-04T04:46:43;9.30;;;0.47;;
37641;SDS011;23486;51.956;5.888;2023-03-04T04:49:09;9.27;;;0.82;;
37641;SDS011;23486;51.956;5.888;2023-03-04T04:51:34;7.90;;;0.40;;
37641;SDS011;23486;51.956;5.888;2023-03-04T04:54:02;9.63;;;0.50;;
37641;SDS011;23486;51.956;5.888;2023-03-04T04:56:28;10.30;;;0.40;;
37641;SDS011;23486;51.956;5.888;2023-03-04T04:58:58;11.48;;;0.75;;
37641;SDS011;23486;51.956;5.888;2023-03-04T05:01:26;7.47;;;0.57;;
37641;SDS011;23486;51.956;5.888;2023-03-04T05:03:52;9.40;;;0.40;;
37641;SDS011;23486;51.956;5.888;2023-03-04T05:06:19;8.55;;;0.50;;
37641;SDS011;23486;51.956;5.888;2023-03-04T05:08:45;9.20;;;0.65;;
37641;SDS011;23486;51.956;5.888;2023-03-04T05:13:47;6.30;;;0.60;;
37641;SDS011;23486;51.956;5.888;2023-03-04T05:16:14;8.77;;;0.50;;
37641;SDS011;23486;51.956;5.888;2023-03-04T05:18:47;6.30;;;0.35;;
37641;SDS011;23486;51.956;5.888;2023-03-04T05:21:12;11.30;;;1.02;;
37641;SDS011;23486;51.956;5.888;2023-03-04T05:23:38;10.52;;;0.43;;
37641;SDS011;23486;51.956;5.888;2023-03-04T05:26:06;10.10;;;0.70;;
37641;SDS011;23486;51.956;5.888;2023-03-04T05:28:33;8.55;;;0.50;;
37641;SDS011;23486;51.956;5.888;2023-03-04T05:30:59;6.03;;;0.63;;
37641;SDS011;23486;51.956;5.888;2023-03-04T05:33:25;8.02;;;0.40;;
37641;SDS011;23486;51.956;5.888;2023-03-04T05:35:51;6.20;;;0.30;;
37641;SDS011;23486;51.956;5.888;2023-03-04T05:38:21;8.07;;;0.70;;
37641;SDS011;23486;51.956;5.888;2023-03-04T05:40:47;8.70;;;0.95;;
37641;SDS011;23486;51.956;5.888;2023-03-04T05:43:13;10.07;;;0.38;;
37641;SDS011;23486;51.956;5.888;2023-03-04T05:45:42;12.15;;;0.63;;
37641;SDS011;23486;51.956;5.888;2023-03-04T05:48:07;6.70;;;0.40;;
37641;SDS011;23486;51.956;5.888;2023-03-04T05:50:33;5.70;;;0.40;;
37641;SDS011;23486;51.956;5.888;2023-03-04T05:52:59;5.43;;;0.20;;
37641;SDS011;23486;51.956;5.888;2023-03-04T05:55:31;8.10;;;0.63;;
37641;SDS011;23486;51.956;5.888;2023-03-04T05:57:57;7.05;;;0.30;;
37641;SDS011;23486;51.956;5.888;2023-03-04T06:00:23;7.25;;;0.35;;
37641;SDS011;23486;51.956;5.888;2023-03-04T06:02:49;8.38;;;0.45;;
37641;SDS011;23486;51.956;5.888;2023-03-04T06:05:14;9.13;;;1.33;;
37641;SDS011;23486;51.956;5.888;2023-03-04T06:07:41;5.32;;;0.40;;
37641;SDS011;23486;51.956;5.888;2023-03-04T06:10:14;11.13;;;0.40;;
37641;SDS011;23486;51.956;5.888;2023-03-04T06:12:40;5.20;;;0.40;;
37641;SDS011;23486;51.956;5.888;2023-03-04T06:15:06;9.75;;;1.10;;
37641;SDS011;23486;51.956;5.888;2023-03-04T06:17:34;5.05;;;0.30;;
37641;SDS011;23486;51.956;5.888;2023-03-04T06:20:00;4.35;;;0.25;;
37641;SDS011;23486;51.956;5.888;2023-03-04T06:22:25;9.60;;;0.45;;
37641;SDS011;23486;51.956;5.888;2023-03-04T06:24:54;7.93;;;0.32;;
37641;SDS011;23486;51.956;5.888;2023-03-04T06:27:19;2.28;;;0.17;;
37641;SDS011;23486;51.956;5.888;2023-03-04T06:29:45;5.60;;;0.82;;
37641;SDS011;23486;51.956;5.888;2023-03-04T06:32:11;5.30;;;0.30;;
37641;SDS011;23486;51.956;5.888;2023-03-04T06:34:36;3.45;;;0.30;;
37641;SDS011;23486;51.956;5.888;2023-03-04T06:37:02;4.50;;;0.32;;
37641;SDS011;23486;51.956;5.888;2023-03-04T06:39:27;5.97;;;0.32;;
37641;SDS011;23486;51.956;5.888;2023-03-04T06:41:53;7.18;;;0.98;;
37641;SDS011;23486;51.956;5.888;2023-03-04T06:44:19;6.05;;;0.30;;
37641;SDS011;23486;51.956;5.888;2023-03-04T06:46:44;4.82;;;0.50;;
37641;SDS011;23486;51.956;5.888;2023-03-04T06:49:10;7.90;;;0.50;;
37641;SDS011;23486;51.956;5.888;2023-03-04T06:51:35;5.40;;;0.30;;
37641;SDS011;23486;51.956;5.888;2023-03-04T06:54:01;2.72;;;0.20;;
37641;SDS011;23486;51.956;5.888;2023-03-04T06:56:27;6.13;;;0.32;;
37641;SDS011;23486;51.956;5.888;2023-03-04T06:58:52;6.05;;;0.30;;
37641;SDS011;23486;51.956;5.888;2023-03-04T07:01:21;2.90;;;0.32;;
37641;SDS011;23486;51.956;5.888;2023-03-04T07:03:52;2.63;;;0.30;;
37641;SDS011;23486;51.956;5.888;2023-03-04T07:06:19;2.45;;;0.20;;
37641;SDS011;23486;51.956;5.888;2023-03-04T07:08:46;3.75;;;0.20;;
37641;SDS011;23486;51.956;5.888;2023-03-04T07:11:12;4.25;;;0.35;;
37641;SDS011;23486;51.956;5.888;2023-03-04T07:13:38;5.03;;;0.40;;
37641;SDS011;23486;51.956;5.888;2023-03-04T07:16:05;8.85;;;0.50;;
37641;SDS011;23486;51.956;5.888;2023-03-04T07:18:32;3.85;;;0.30;;
37641;SDS011;23486;51.956;5.888;2023-03-04T07:20:58;10.77;;;0.60;;
37641;SDS011;23486;51.956;5.888;2023-03-04T07:23:26;5.07;;;0.57;;
37641;SDS011;23486;51.956;5.888;2023-03-04T07:25:54;6.03;;;0.40;;
37641;SDS011;23486;51.956;5.888;2023-03-04T07:28:20;4.07;;;0.20;;
37641;SDS011;23486;51.956;5.888;2023-03-04T07:30:45;5.50;;;1.15;;
37641;SDS011;23486;51.956;5.888;2023-03-04T07:33:11;6.13;;;0.40;;
37641;SDS011;23486;51.956;5.888;2023-03-04T07:35:37;10.85;;;0.50;;
37641;SDS011;23486;51.956;5.888;2023-03-04T07:38:03;4.68;;;0.38;;
37641;SDS011;23486;51.956;5.888;2023-03-04T07:40:31;10.77;;;0.50;;
37641;SDS011;23486;51.956;5.888;2023-03-04T07:43:00;3.60;;;0.70;;
37641;SDS011;23486;51.956;5.888;2023-03-04T07:45:26;5.10;;;0.77;;
37641;SDS011;23486;51.956;5.888;2023-03-04T07:47:51;5.00;;;0.40;;
37641;SDS011;23486;51.956;5.888;2023-03-04T07:50:18;4.20;;;0.40;;
37641;SDS011;23486;51.956;5.888;2023-03-04T07:52:44;8.02;;;0.75;;
37641;SDS011;23486;51.956;5.888;2023-03-04T07:55:12;5.20;;;0.50;;
37641;SDS011;23486;51.956;5.888;2023-03-04T07:57:43;7.15;;;0.50;;
37641;SDS011;23486;51.956;5.888;2023-03-04T08:00:11;3.70;;;0.57;;
37641;SDS011;23486;51.956;5.888;2023-03-04T08:02:38;7.65;;;0.80;;
37641;SDS011;23486;51.956;5.888;2023-03-04T08:05:07;4.07;;;0.43;;
37641;SDS011;23486;51.956;5.888;2023-03-04T08:07:33;2.63;;;0.50;;
37641;SDS011;23486;51.956;5.888;2023-03-04T08:09:58;3.60;;;0.50;;
37641;SDS011;23486;51.956;5.888;2023-03-04T08:12:27;6.28;;;0.50;;
37641;SDS011;23486;51.956;5.888;2023-03-04T08:14:53;6.15;;;0.40;;
37641;SDS011;23486;51.956;5.888;2023-03-04T08:17:19;3.50;;;0.50;;
37641;SDS011;23486;51.956;5.888;2023-03-04T08:19:45;7.15;;;0.57;;
37641;SDS011;23486;51.956;5.888;2023-03-04T08:22:11;3.85;;;0.50;;
37641;SDS011;23486;51.956;5.888;2023-03-04T08:24:36;4.95;;;0.60;;
37641;SDS011;23486;51.956;5.888;2023-03-04T08:27:02;5.50;;;0.40;;
37641;SDS011;23486;51.956;5.888;2023-03-04T08:29:28;8.60;;;0.80;;
37641;SDS011;23486;51.956;5.888;2023-03-04T08:31:54;6.38;;;0.45;;
37641;SDS011;23486;51.956;5.888;2023-03-04T08:34:21;6.82;;;0.50;;
37641;SDS011;23486;51.956;5.888;2023-03-04T08:36:48;3.95;;;0.30;;
37641;SDS011;23486;51.956;5.888;2023-03-04T08:39:15;5.55;;;0.40;;
37641;SDS011;23486;51.956;5.888;2023-03-04T08:41:42;7.50;;;0.68;;
37641;SDS011;23486;51.956;5.888;2023-03-04T08:44:08;4.45;;;0.50;;
37641;SDS011;23486;51.956;5.888;2023-03-04T08:46:37;3.75;;;0.50;;
37641;SDS011;23486;51.956;5.888;2023-03-04T08:49:05;2.20;;;0.28;;
37641;SDS011;23486;51.956;5.888;2023-03-04T08:51:31;6.38;;;0.40;;
37641;SDS011;23486;51.956;5.888;2023-03-04T08:54:02;7.20;;;0.80;;
37641;SDS011;23486;51.956;5.888;2023-03-04T08:56:29;7.15;;;0.70;;
37641;SDS011;23486;51.956;5.888;2023-03-04T08:58:54;8.00;;;0.40;;
37641;SDS011;23486;51.956;5.888;2023-03-04T09:01:20;9.15;;;0.70;;
37641;SDS011;23486;51.956;5.888;2023-03-04T09:03:45;4.45;;;0.50;;
37641;SDS011;23486;51.956;5.888;2023-03-04T09:06:15;7.25;;;0.60;;
37641;SDS011;23486;51.956;5.888;2023-03-04T09:08:41;5.68;;;0.50;;
37641;SDS011;23486;51.956;5.888;2023-03-04T09:11:13;5.38;;;0.40;;
37641;SDS011;23486;51.956;5.888;2023-03-04T09:13:39;3.72;;;0.60;;
37641;SDS011;23486;51.956;5.888;2023-03-04T09:16:09;6.68;;;0.85;;
37641;SDS011;23486;51.956;5.888;2023-03-04T09:18:36;4.80;;;0.50;;
37641;SDS011;23486;51.956;5.888;2023-03-04T09:21:05;4.03;;;0.50;;
37641;SDS011;23486;51.956;5.888;2023-03-04T09:23:32;5.05;;;0.45;;
37641;SDS011;23486;51.956;5.888;2023-03-04T09:25:58;3.28;;;0.50;;
37641;SDS011;23486;51.956;5.888;2023-03-04T09:28:23;5.55;;;0.60;;
37641;SDS011;23486;51.956;5.888;2023-03-04T09:30:49;7.53;;;0.90;;
37641;SDS011;23486;51.956;5.888;2023-03-04T09:33:17;7.43;;;1.15;;
37641;SDS011;23486;51.956;5.888;2023-03-04T09:35:43;4.97;;;0.50;;
37641;SDS011;23486;51.956;5.888;2023-03-04T09:38:09;3.25;;;0.60;;
37641;SDS011;23486;51.956;5.888;2023-03-04T09:40:45;5.32;;;0.50;;
37641;SDS011;23486;51.956;5.888;2023-03-04T09:43:19;4.25;;;1.05;;
37641;SDS011;23486;51.956;5.888;2023-03-04T09:45:54;7.78;;;0.40;;
37641;SDS011;23486;51.956;5.888;2023-03-04T09:48:26;3.87;;;0.60;;
37641;SDS011;23486;51.956;5.888;2023-03-04T09:51:10;1.80;;;0.45;;
37641;SDS011;23486;51.956;5.888;2023-03-04T09:54:00;1.70;;;0.35;;
37641;SDS011;23486;51.956;5.888;2023-03-04T09:56:33;3.58;;;0.40;;
37641;SDS011;23486;51.956;5.888;2023-03-04T09:59:04;7.05;;;0.30;;
37641;SDS011;23486;51.956;5.888;2023-03-04T10:01:50;3.38;;;0.52;;
37641;SDS011;23486;51.956;5.888;2023-03-04T10:06:52;2.47;;;0.30;;
37641;SDS011;23486;51.956;5.888;2023-03-04T10:09:23;2.15;;;0.40;;
37641;SDS011;23486;51.956;5.888;2023-03-04T10:11:58;1.23;;;0.40;;
37641;SDS011;23486;51.956;5.888;2023-03-04T10:14:34;3.85;;;0.40;;
37641;SDS011;23486;51.956;5.888;2023-03-04T10:17:37;3.33;;;0.40;;
37641;SDS011;23486;51.956;5.888;2023-03-04T10:22:52;2.85;;;0.40;;
37641;SDS011;23486;51.956;5.888;2023-03-04T10:25:24;2.00;;;0.32;;
37641;SDS011;23486;51.956;5.888;2023-03-04T10:27:53;3.95;;;0.40;;
37641;SDS011;23486;51.956;5.888;2023-03-04T10:30:52;3.20;;;0.40;;
37641;SDS011;23486;51.956;5.888;2023-03-04T10:33:39;1.27;;;0.30;;
37641;SDS011;23486;51.956;5.888;2023-03-04T10:36:13;3.03;;;0.30;;
37641;SDS011;23486;51.956;5.888;2023-03-04T10:38:59;1.27;;;0.35;;
37641;SDS011;23486;51.956;5.888;2023-03-04T10:41:29;3.75;;;0.63;;
37641;SDS011;23486;51.956;5.888;2023-03-04T10:46:24;3.67;;;0.40;;
37641;SDS011;23486;51.956;5.888;2023-03-04T10:48:56;3.45;;;0.30;;
37641;SDS011;23486;51.956;5.888;2023-03-04T10:51:23;4.50;;;0.40;;
37641;SDS011;23486;51.956;5.888;2023-03-04T10:53:55;2.97;;;0.30;;
37641;SDS011;23486;51.956;5.888;2023-03-04T11:05:28;1.55;;;0.30;;
37641;SDS011;23486;51.956;5.888;2023-03-04T11:07:48;4.20;;;0.30;;
37641;SDS011;23486;51.956;5.888;2023-03-04T11:13:07;3.05;;;0.30;;
37641;SDS011;23486;51.956;5.888;2023-03-04T11:15:47;2.55;;;0.20;;
37641;SDS011;23486;51.956;5.888;2023-03-04T11:18:29;2.78;;;0.28;;
37641;SDS011;23486;51.956;5.888;2023-03-04T11:21:07;2.03;;;0.32;;
37641;SDS011;23486;51.956;5.888;2023-03-04T11:23:42;2.50;;;0.20;;
37641;SDS011;23486;51.956;5.888;2023-03-04T11:26:20;3.72;;;0.20;;
37641;SDS011;23486;51.956;5.888;2023-03-04T11:31:29;1.40;;;0.28;;
37641;SDS011;23486;51.956;5.888;2023-03-04T11:34:43;2.60;;;0.30;;
37641;SDS011;23486;51.956;5.888;2023-03-04T11:37:11;1.20;;;0.30;;
37641;SDS011;23486;51.956;5.888;2023-03-04T11:39:51;3.45;;;0.30;;
37641;SDS011;23486;51.956;5.888;2023-03-04T11:42:41;1.80;;;0.25;;
37641;SDS011;23486;51.956;5.888;2023-03-04T11:45:23;1.10;;;0.20;;
37641;SDS011;23486;51.956;5.888;2023-03-04T11:50:50;3.05;;;0.30;;
37641;SDS011;23486;51.956;5.888;2023-03-04T12:10:29;2.35;;;0.28;;
37641;SDS011;23486;51.956;5.888;2023-03-04T12:24:33;2.60;;;0.60;;
37641;SDS011;23486;51.956;5.888;2023-03-04T12:27:23;1.52;;;0.20;;
37641;SDS011;23486;51.956;5.888;2023-03-04T12:35:19;1.52;;;0.17;;
37641;SDS011;23486;51.956;5.888;2023-03-04T12:37:59;1.38;;;0.22;;
37641;SDS011;23486;51.956;5.888;2023-03-04T12:40:38;1.30;;;0.30;;
37641;SDS011;23486;51.956;5.888;2023-03-04T12:51:13;3.30;;;0.55;;
37641;SDS011;23486;51.956;5.888;2023-03-04T12:54:27;7.47;;;0.98;;
37641;SDS011;23486;51.956;5.888;2023-03-04T12:56:56;6.72;;;0.30;;
37641;SDS011;23486;51.956;5.888;2023-03-04T12:59:25;7.60;;;0.30;;
37641;SDS011;23486;51.956;5.888;2023-03-04T13:07:20;4.38;;;0.30;;
37641;SDS011;23486;51.956;5.888;2023-03-04T13:10:14;3.13;;;0.40;;
37641;SDS011;23486;51.956;5.888;2023-03-04T13:12:52;5.78;;;0.85;;
37641;SDS011;23486;51.956;5.888;2023-03-04T13:17:47;4.70;;;0.30;;
37641;SDS011;23486;51.956;5.888;2023-03-04T13:20:39;9.05;;;0.40;;
37641;SDS011;23486;51.956;5.888;2023-03-04T13:25:45;7.28;;;0.57;;
37641;SDS011;23486;51.956;5.888;2023-03-04T13:43:46;2.75;;;0.20;;
37641;SDS011;23486;51.956;5.888;2023-03-04T13:56:37;8.73;;;0.52;;
37641;SDS011;23486;51.956;5.888;2023-03-04T14:01:32;8.98;;;0.73;;
37641;SDS011;23486;51.956;5.888;2023-03-04T14:04:09;4.72;;;0.43;;
37641;SDS011;23486;51.956;5.888;2023-03-04T14:06:49;7.53;;;0.30;;
37641;SDS011;23486;51.956;5.888;2023-03-04T14:11:49;4.93;;;0.60;;
37641;SDS011;23486;51.956;5.888;2023-03-04T14:14:20;14.43;;;0.93;;
37641;SDS011;23486;51.956;5.888;2023-03-04T14:16:50;13.20;;;0.60;;
37641;SDS011;23486;51.956;5.888;2023-03-04T14:19:43;5.28;;;0.73;;
37641;SDS011;23486;51.956;5.888;2023-03-04T14:30:39;5.35;;;0.40;;
37641;SDS011;23486;51.956;5.888;2023-03-04T14:33:13;9.13;;;0.50;;
37641;SDS011;23486;51.956;5.888;2023-03-04T14:36:02;7.25;;;0.50;;
37641;SDS011;23486;51.956;5.888;2023-03-04T14:38:36;2.78;;;0.55;;
37641;SDS011;23486;51.956;5.888;2023-03-04T14:41:06;5.47;;;0.50;;
37641;SDS011;23486;51.956;5.888;2023-03-04T14:43:43;4.32;;;0.40;;
37641;SDS011;23486;51.956;5.888;2023-03-04T14:46:20;6.68;;;0.50;;
37641;SDS011;23486;51.956;5.888;2023-03-04T14:48:51;7.75;;;0.65;;
37641;SDS011;23486;51.956;5.888;2023-03-04T14:54:25;7.20;;;0.40;;
37641;SDS011;23486;51.956;5.888;2023-03-04T14:56:59;5.68;;;0.50;;
37641;SDS011;23486;51.956;5.888;2023-03-04T14:59:40;4.35;;;0.50;;
37641;SDS011;23486;51.956;5.888;2023-03-04T15:02:19;5.15;;;0.20;;
37641;SDS011;23486;51.956;5.888;2023-03-04T15:04:48;4.30;;;0.43;;
37641;SDS011;23486;51.956;5.888;2023-03-04T15:07:16;2.42;;;0.10;;
37641;SDS011;23486;51.956;5.888;2023-03-04T15:10:05;1.20;;;0.20;;
37641;SDS011;23486;51.956;5.888;2023-03-04T15:12:33;4.53;;;0.20;;
37641;SDS011;23486;51.956;5.888;2023-03-04T15:15:02;2.72;;;0.20;;
37641;SDS011;23486;51.956;5.888;2023-03-04T15:17:56;2.75;;;0.10;;
37641;SDS011;23486;51.956;5.888;2023-03-04T15:20:26;3.88;;;0.20;;
37641;SDS011;23486;51.956;5.888;2023-03-04T15:23:01;3.63;;;0.20;;
37641;SDS011;23486;51.956;5.888;2023-03-04T15:25:31;2.80;;;0.20;;
37641;SDS011;23486;51.956;5.888;2023-03-04T15:27:57;2.35;;;0.20;;
37641;SDS011;23486;51.956;5.888;2023-03-04T15:30:30;3.55;;;0.40;;
37641;SDS011;23486;51.956;5.888;2023-03-04T15:32:57;2.78;;;0.20;;
37641;SDS011;23486;51.956;5.888;2023-03-04T15:35:24;1.77;;;0.20;;
37641;SDS011;23486;51.956;5.888;2023-03-04T15:37:53;1.17;;;0.20;;
37641;SDS011;23486;51.956;5.888;2023-03-04T15:40:23;2.78;;;0.20;;
37641;SDS011;23486;51.956;5.888;2023-03-04T15:42:56;2.55;;;0.20;;
37641;SDS011;23486;51.956;5.888;2023-03-04T15:45:28;3.60;;;0.45;;
37641;SDS011;23486;51.956;5.888;2023-03-04T15:47:55;3.05;;;0.40;;
37641;SDS011;23486;51.956;5.888;2023-03-04T15:50:21;2.97;;;0.28;;
37641;SDS011;23486;51.956;5.888;2023-03-04T15:52:51;2.40;;;0.43;;
37641;SDS011;23486;51.956;5.888;2023-03-04T15:55:20;5.35;;;0.30;;
37641;SDS011;23486;51.956;5.888;2023-03-04T15:57:47;3.17;;;0.30;;
37641;SDS011;23486;51.956;5.888;2023-03-04T16:00:15;11.98;;;0.40;;
37641;SDS011;23486;51.956;5.888;2023-03-04T16:02:45;4.57;;;0.40;;
37641;SDS011;23486;51.956;5.888;2023-03-04T16:05:11;6.57;;;0.40;;
37641;SDS011;23486;51.956;5.888;2023-03-04T16:07:37;3.88;;;0.50;;
37641;SDS011;23486;51.956;5.888;2023-03-04T16:13:14;9.98;;;2.22;;
37641;SDS011;23486;51.956;5.888;2023-03-04T16:15:43;7.72;;;0.57;;
37641;SDS011;23486;51.956;5.888;2023-03-04T16:18:09;5.18;;;0.40;;
37641;SDS011;23486;51.956;5.888;2023-03-04T16:20:39;3.95;;;0.40;;
37641;SDS011;23486;51.956;5.888;2023-03-04T16:23:12;5.90;;;0.45;;
37641;SDS011;23486;51.956;5.888;2023-03-04T16:25:41;6.15;;;0.40;;
37641;SDS011;23486;51.956;5.888;2023-03-04T16:28:09;6.72;;;0.32;;
37641;SDS011;23486;51.956;5.888;2023-03-04T16:30:35;5.55;;;0.40;;
37641;SDS011;23486;51.956;5.888;2023-03-04T16:33:01;7.13;;;0.40;;
37641;SDS011;23486;51.956;5.888;2023-03-04T16:35:27;6.10;;;0.43;;
37641;SDS011;23486;51.956;5.888;2023-03-04T16:37:58;5.65;;;0.30;;
37641;SDS011;23486;51.956;5.888;2023-03-04T16:40:30;4.50;;;0.30;;
37641;SDS011;23486;51.956;5.888;2023-03-04T16:42:56;6.55;;;0.70;;
37641;SDS011;23486;51.956;5.888;2023-03-04T16:45:25;10.68;;;0.57;;
37641;SDS011;23486;51.956;5.888;2023-03-04T16:47:54;4.18;;;0.40;;
37641;SDS011;23486;51.956;5.888;2023-03-04T16:50:21;11.70;;;0.50;;
37641;SDS011;23486;51.956;5.888;2023-03-04T16:52:51;9.02;;;0.93;;
37641;SDS011;23486;51.956;5.888;2023-03-04T16:55:27;4.10;;;0.57;;
37641;SDS011;23486;51.956;5.888;2023-03-04T16:57:54;7.50;;;0.40;;
37641;SDS011;23486;51.956;5.888;2023-03-04T17:00:22;7.78;;;0.50;;
37641;SDS011;23486;51.956;5.888;2023-03-04T17:02:56;8.13;;;1.80;;
37641;SDS011;23486;51.956;5.888;2023-03-04T17:05:24;8.25;;;0.75;;
37641;SDS011;23486;51.956;5.888;2023-03-04T17:07:52;5.60;;;0.50;;
37641;SDS011;23486;51.956;5.888;2023-03-04T17:10:18;4.68;;;0.70;;